This is the latest recevied weather packets stored in our database for station/object KD7AWQ. If no packets are shown the sender has not sent any weather packets the latest 10 day(s).
| Time | Temp. | Humidity | Pressure | Rain* | Wind** | Luminosity | Snow |
|---|---|---|---|---|---|---|---|
| 1777616477 | 15° C | 62% | 1180.5 hPa | 0 mm | - | 0 W/m² | - |
| 1777616173 | 15° C | 62% | 1180.9 hPa | 0 mm | - | 0 W/m² | - |
| 1777615870 | 15° C | 62% | 1180.7 hPa | 0 mm | - | 0 W/m² | - |
| 1777615567 | 15° C | 62% | 1180.6 hPa | 0 mm | - | 0 W/m² | - |
| 1777615263 | 15° C | 63% | 1180.6 hPa | 0 mm | - | 0 W/m² | - |
| 1777614956 | 15.56° C | 62% | 1180.6 hPa | 0 mm | - | 0 W/m² | - |
| 1777614654 | 15.56° C | 60% | 1180.9 hPa | 0 mm | - | 0 W/m² | - |
| 1777614349 | 15° C | 61% | 1180.7 hPa | 0 mm | - | 0 W/m² | - |
| 1777614044 | 15.56° C | 62% | 1180.2 hPa | 0 mm | - | 0 W/m² | - |
| 1777613740 | 15.56° C | 58% | 1180.5 hPa | 0 mm | - | 0 W/m² | - |
| 1777613438 | 15.56° C | 60% | 1180.3 hPa | 0 mm | - | 0 W/m² | - |
| 1777613134 | 15.56° C | 59% | 1180.1 hPa | 0 mm | - | 0 W/m² | - |
| 1777612830 | 15.56° C | 58% | 1180.1 hPa | 0 mm | - | 0 W/m² | - |
| 1777612527 | 16.11° C | 57% | 1180.1 hPa | 0 mm | - | 0 W/m² | - |
| 1777612222 | 16.11° C | 57% | 1180.3 hPa | 0 mm | - | 0 W/m² | - |
| 1777611917 | 16.11° C | 56% | 1180.2 hPa | 0 mm | - | 0 W/m² | - |
| 1777611613 | 16.67° C | 56% | 1180 hPa | 0 mm | - | 0 W/m² | - |
| 1777611310 | 16.67° C | 55% | 1180 hPa | 0 mm | - | 0 W/m² | - |
| 1777611008 | 16.11° C | 56% | 1180.1 hPa | 0 mm | - | 0 W/m² | - |
| 1777610703 | 16.67° C | 56% | 1180 hPa | 0 mm | - | 0 W/m² | - |
| 1777610401 | 16.67° C | 55% | 1180 hPa | 0 mm | - | 0 W/m² | - |
| 1777610097 | 16.67° C | 55% | 1179.6 hPa | 0 mm | - | 0 W/m² | - |
| 1777609795 | 16.67° C | 54% | 1179.8 hPa | 0 mm | - | 0 W/m² | - |
| 1777609491 | 16.67° C | 53% | 1179.8 hPa | 0 mm | - | 0 W/m² | - |
| 1777609189 | 16.67° C | 53% | 1179.5 hPa | 0 mm | - | 0 W/m² | - |
* Rain latest hour (hover to see other rain measurements)
** Current wind speed in m/s (hover to see current wind gust speed)